createdAt,value
2018-11-29T00:00:40.577Z,101434.33
2018-11-29T00:03:11.073Z,101425.11
2018-11-29T00:05:40.850Z,101415.39
2018-11-29T00:08:10.283Z,101409.66
2018-11-29T00:10:39.632Z,101418.39
2018-11-29T00:13:09.020Z,101422.34
2018-11-29T00:15:38.596Z,101427.61
2018-11-29T00:18:07.931Z,101436.02
2018-11-29T00:20:37.468Z,101430.60
2018-11-29T00:23:06.913Z,101404.34
2018-11-29T00:25:36.191Z,101420.70
2018-11-29T00:28:06.572Z,101399.70
2018-11-29T00:31:39.135Z,101402.48
2018-11-29T00:34:08.580Z,101401.34
2018-11-29T00:36:38.055Z,101401.21
2018-11-29T00:39:07.925Z,101399.44
2018-11-29T00:41:37.240Z,101398.12
2018-11-29T00:44:07.694Z,101392.03
2018-11-29T00:46:37.064Z,101402.94
2018-11-29T00:49:06.344Z,101401.08
2018-11-29T00:51:35.783Z,101387.03
2018-11-29T00:54:05.501Z,101391.53
2018-11-29T00:56:34.914Z,101386.31
2018-11-29T00:59:04.176Z,101385.90
2018-11-29T01:01:33.545Z,101385.81
2018-11-29T01:04:03.047Z,101379.19
2018-11-29T01:06:32.337Z,101377.31
2018-11-29T01:09:01.750Z,101384.30
2018-11-29T01:11:31.115Z,101381.27
2018-11-29T01:14:01.124Z,101390.80
2018-11-29T01:16:30.470Z,101375.73
2018-11-29T01:18:59.924Z,101382.81
2018-11-29T01:21:29.223Z,101380.27
2018-11-29T01:23:58.580Z,101384.85
2018-11-29T01:26:28.032Z,101399.06
2018-11-29T01:28:57.508Z,101394.30
2018-11-29T01:31:26.850Z,101400.74
2018-11-29T01:33:56.232Z,101393.70
2018-11-29T01:36:25.547Z,101395.53
2018-11-29T01:38:54.872Z,101390.84
2018-11-29T01:41:24.197Z,101383.27
2018-11-29T01:43:53.577Z,101388.98
2018-11-29T01:49:10.417Z,101395.89
2018-11-29T01:51:41.120Z,101400.75
2018-11-29T01:54:13.019Z,101399.56
2018-11-29T01:56:43.243Z,101395.61
2018-11-29T01:59:13.507Z,101401.70
2018-11-29T02:01:43.019Z,101389.03
2018-11-29T02:04:16.912Z,101392.94
2018-11-29T02:06:46.514Z,101397.21
2018-11-29T02:09:16.587Z,101397.11
2018-11-29T02:11:46.344Z,101383.49
2018-11-29T02:14:16.552Z,101391.44
2018-11-29T02:16:46.711Z,101384.03
2018-11-29T02:19:17.029Z,101393.30
2018-11-29T02:21:47.987Z,101385.76
2018-11-29T02:24:18.968Z,101383.41
2018-11-29T02:26:48.876Z,101378.18
2018-11-29T02:29:18.652Z,101379.59
2018-11-29T02:31:48.710Z,101369.05
2018-11-29T02:34:18.515Z,101371.14
2018-11-29T02:36:50.399Z,101366.78
2018-11-29T02:39:20.240Z,101363.55
2018-11-29T02:41:49.981Z,101347.39
2018-11-29T02:47:03.719Z,101350.52
2018-11-29T02:49:33.073Z,101347.33
2018-11-29T02:52:02.401Z,101334.31
2018-11-29T02:54:33.894Z,101329.58
2018-11-29T02:57:03.329Z,101330.03
2018-11-29T02:59:33.420Z,101330.50
2018-11-29T03:02:05.920Z,101346.47
2018-11-29T03:04:36.406Z,101340.39
2018-11-29T03:07:06.483Z,101328.14
2018-11-29T03:09:36.048Z,101322.88
2018-11-29T03:12:06.023Z,101327.17
2018-11-29T03:14:36.827Z,101322.91
2018-11-29T03:17:06.568Z,101314.11
2018-11-29T03:19:36.394Z,101315.02
2018-11-29T03:22:07.489Z,101313.64
2018-11-29T03:24:38.028Z,101302.44
2018-11-29T03:27:07.717Z,101300.63
2018-11-29T03:29:37.559Z,101300.31
2018-11-29T03:32:07.486Z,101297.31
2018-11-29T03:34:37.076Z,101297.89
2018-11-29T03:37:06.922Z,101311.11
2018-11-29T03:39:36.227Z,101304.53
2018-11-29T03:42:06.341Z,101292.85
2018-11-29T03:44:36.137Z,101299.06
2018-11-29T03:47:06.846Z,101302.02
2018-11-29T03:49:37.219Z,101292.85
2018-11-29T03:52:06.520Z,101300.38
2018-11-29T03:54:35.793Z,101295.13
2018-11-29T03:57:05.409Z,101295.13
2018-11-29T03:59:35.156Z,101283.78
2018-11-29T04:02:04.851Z,101280.41
2018-11-29T04:04:34.678Z,101278.68
2018-11-29T04:07:04.822Z,101264.98
2018-11-29T04:09:34.285Z,101269.11
2018-11-29T04:12:03.882Z,101268.30
2018-11-29T04:14:33.800Z,101272.23
2018-11-29T04:17:04.667Z,101284.58
2018-11-29T04:19:34.181Z,101270.19
2018-11-29T04:22:03.679Z,101267.15
2018-11-29T04:24:33.029Z,101264.48
2018-11-29T04:27:02.895Z,101271.95
2018-11-29T04:29:32.976Z,101277.09
2018-11-29T04:32:05.011Z,101278.86
2018-11-29T04:34:34.712Z,101275.90
2018-11-29T04:37:04.392Z,101270.64
2018-11-29T04:39:35.036Z,101246.05
2018-11-29T04:42:04.528Z,101251.77
2018-11-29T04:44:34.557Z,101258.34
2018-11-29T04:47:04.737Z,101266.16
2018-11-29T04:49:34.580Z,101253.49
2018-11-29T04:52:04.340Z,101263.73
2018-11-29T04:54:34.243Z,101268.06
2018-11-29T04:57:03.661Z,101257.49
2018-11-29T04:59:34.260Z,101267.97
2018-11-29T05:02:03.958Z,101261.93
2018-11-29T05:04:33.805Z,101255.71
2018-11-29T05:07:03.438Z,101245.28
2018-11-29T05:09:32.995Z,101247.46
2018-11-29T05:12:02.273Z,101248.82
2018-11-29T05:14:31.526Z,101247.05
2018-11-29T05:17:01.422Z,101245.19
2018-11-29T05:19:31.191Z,101245.14
2018-11-29T05:22:01.227Z,101234.72
2018-11-29T05:24:30.724Z,101231.99
2018-11-29T05:27:00.161Z,101227.73
2018-11-29T05:29:29.443Z,101221.73
2018-11-29T05:31:59.877Z,101230.36
2018-11-29T05:34:29.616Z,101217.61
2018-11-29T05:36:59.107Z,101207.67
2018-11-29T05:39:29.339Z,101219.02
2018-11-29T05:42:00.292Z,101217.25
2018-11-29T05:44:29.650Z,101224.77
2018-11-29T05:46:58.942Z,101224.36
2018-11-29T05:49:28.196Z,101226.13
2018-11-29T05:51:57.565Z,101230.53
2018-11-29T05:54:26.895Z,101237.84
2018-11-29T05:56:56.252Z,101233.48
2018-11-29T05:59:25.775Z,101241.66
2018-11-29T06:01:56.399Z,101230.27
2018-11-29T06:04:27.260Z,101233.76
2018-11-29T06:06:57.484Z,101227.50
2018-11-29T06:10:30.551Z,101237.13
2018-11-29T06:15:35.478Z,101244.80
2018-11-29T06:18:07.188Z,101248.66
2018-11-29T06:20:36.501Z,101240.34
2018-11-29T06:23:06.195Z,101233.77
2018-11-29T06:25:35.607Z,101227.59
2018-11-29T06:28:04.885Z,101225.36
2018-11-29T06:30:34.652Z,101231.49
2018-11-29T06:33:03.999Z,101223.14
2018-11-29T06:35:33.262Z,101223.61
2018-11-29T06:38:02.651Z,101229.27
2018-11-29T06:40:31.985Z,101224.78
2018-11-29T06:43:05.094Z,101223.09
2018-11-29T06:45:34.527Z,101234.44
2018-11-29T06:48:03.924Z,101216.42
2018-11-29T06:50:33.264Z,101218.50
2018-11-29T06:53:02.656Z,101218.97
2018-11-29T06:55:31.937Z,101215.11
2018-11-29T06:58:02.581Z,101219.83
2018-11-29T07:00:33.270Z,101215.02
2018-11-29T07:03:05.902Z,101210.92
2018-11-29T07:05:42.462Z,101211.38
2018-11-29T07:08:14.865Z,101209.92
2018-11-29T07:10:55.679Z,101206.07
2018-11-29T07:13:25.524Z,101213.97
2018-11-29T07:15:58.097Z,101205.80
2018-11-29T07:18:31.421Z,101215.59
2018-11-29T07:21:13.253Z,101209.92
2018-11-29T07:23:45.393Z,101206.43
2018-11-29T07:26:17.057Z,101204.60
2018-11-29T07:28:50.506Z,101205.41
2018-11-29T07:31:22.087Z,101201.56
2018-11-29T07:33:55.195Z,101201.02
2018-11-29T07:36:26.270Z,101193.97
2018-11-29T07:38:58.851Z,101192.25
2018-11-29T07:41:30.983Z,101194.70
2018-11-29T07:44:02.677Z,101189.87
2018-11-29T07:46:35.991Z,101188.46
2018-11-29T07:49:08.416Z,101186.28
2018-11-29T07:54:22.156Z,101179.96
2018-11-29T07:57:10.160Z,101183.87
2018-11-29T07:59:42.734Z,101175.45
2018-11-29T08:02:14.699Z,101173.22
2018-11-29T08:04:49.397Z,101173.08
2018-11-29T08:07:21.490Z,101169.92
2018-11-29T08:09:56.863Z,101168.55
2018-11-29T08:12:32.368Z,101182.48
2018-11-29T08:15:07.410Z,101175.38
2018-11-29T08:17:39.465Z,101172.36
2018-11-29T08:20:14.894Z,101177.97
2018-11-29T08:22:47.508Z,101174.06
2018-11-29T08:25:19.647Z,101178.12
2018-11-29T08:27:51.359Z,101170.58
2018-11-29T08:30:24.023Z,101167.43
2018-11-29T08:32:56.041Z,101165.10
2018-11-29T08:35:27.904Z,101168.09
2018-11-29T08:37:59.032Z,101164.48
2018-11-29T08:40:31.278Z,101165.55
2018-11-29T08:43:05.691Z,101165.23
2018-11-29T08:45:37.049Z,101159.05
2018-11-29T08:48:08.893Z,101152.88
2018-11-29T08:50:39.865Z,101160.27
2018-11-29T08:53:09.693Z,101157.56
2018-11-29T08:55:39.404Z,101150.88
2018-11-29T08:58:11.426Z,101159.47
2018-11-29T09:00:40.845Z,101152.32
2018-11-29T09:03:10.129Z,101148.66
2018-11-29T09:05:40.565Z,101149.00
2018-11-29T09:08:10.259Z,101145.75
2018-11-29T09:10:39.535Z,101152.86
2018-11-29T09:13:09.370Z,101153.37
2018-11-29T09:15:40.449Z,101153.08
2018-11-29T09:18:10.366Z,101149.58
2018-11-29T09:20:40.255Z,101154.69
2018-11-29T09:23:13.715Z,101151.92
2018-11-29T09:25:44.076Z,101160.75
2018-11-29T09:28:13.925Z,101158.19
2018-11-29T09:30:44.605Z,101146.70
2018-11-29T09:33:17.988Z,101147.97
2018-11-29T09:35:50.787Z,101148.31
2018-11-29T09:38:20.749Z,101144.30
2018-11-29T09:40:50.823Z,101140.67
2018-11-29T09:43:22.141Z,101136.03
2018-11-29T09:45:55.878Z,101130.23
2018-11-29T09:48:26.464Z,101138.59
2018-11-29T09:50:58.183Z,101122.77
2018-11-29T09:53:29.250Z,101125.58
2018-11-29T09:55:59.382Z,101118.06
2018-11-29T09:58:29.259Z,101116.73
2018-11-29T10:01:00.606Z,101117.92
2018-11-29T10:03:32.633Z,101116.83
2018-11-29T10:06:03.612Z,101119.88
2018-11-29T10:08:34.230Z,101112.67
2018-11-29T10:11:04.793Z,101112.67
2018-11-29T10:13:34.941Z,101109.57
2018-11-29T10:16:06.239Z,101106.30
2018-11-29T10:18:36.415Z,101109.31
2018-11-29T10:21:08.058Z,101102.39
2018-11-29T10:23:37.981Z,101105.35
2018-11-29T10:26:08.185Z,101098.44
2018-11-29T10:28:38.253Z,101089.83
2018-11-29T10:31:08.436Z,101098.95
2018-11-29T10:33:38.565Z,101102.39
2018-11-29T10:36:08.883Z,101098.35
2018-11-29T10:38:39.564Z,101103.26
2018-11-29T10:41:10.487Z,101095.71
2018-11-29T10:43:40.811Z,101099.88
2018-11-29T10:46:11.311Z,101098.98
2018-11-29T10:48:41.779Z,101089.86
2018-11-29T10:51:16.457Z,101088.43
2018-11-29T10:53:47.606Z,101078.27
2018-11-29T10:56:18.269Z,101079.53
2018-11-29T10:58:51.946Z,101071.73
2018-11-29T11:01:28.341Z,101069.95
2018-11-29T11:03:58.560Z,101069.84
2018-11-29T11:06:28.750Z,101065.88
2018-11-29T11:08:58.737Z,101056.50
2018-11-29T11:11:29.270Z,101062.09
2018-11-29T11:13:59.919Z,101061.92
2018-11-29T11:16:29.866Z,101062.03
2018-11-29T11:19:01.421Z,101060.26
2018-11-29T11:21:31.780Z,101053.54
2018-11-29T11:24:01.036Z,101059.16
2018-11-29T11:26:30.599Z,101052.36
2018-11-29T11:28:59.857Z,101049.72
2018-11-29T11:31:31.148Z,101046.95
2018-11-29T11:33:59.920Z,101047.27
2018-11-29T11:36:29.297Z,101047.09
2018-11-29T11:38:58.623Z,101037.78
2018-11-29T11:41:28.176Z,101034.63
2018-11-29T11:43:58.577Z,101041.20
2018-11-29T11:46:28.305Z,101041.47
2018-11-29T11:48:58.788Z,101031.19
2018-11-29T11:51:29.439Z,101042.06
2018-11-29T11:53:58.681Z,101046.23
2018-11-29T11:56:29.976Z,101046.14
2018-11-29T11:58:59.517Z,101047.86
2018-11-29T12:01:28.920Z,101050.59
2018-11-29T12:03:59.960Z,101040.89
2018-11-29T12:06:28.202Z,101041.66
2018-11-29T12:09:01.682Z,101047.86
2018-11-29T12:11:31.388Z,101038.70
2018-11-29T12:14:00.799Z,101043.96
2018-11-29T12:16:30.163Z,101040.00
2018-11-29T12:19:02.259Z,101035.58
2018-11-29T12:21:28.979Z,101029.38
2018-11-29T12:23:58.528Z,101032.11
2018-11-29T12:26:27.967Z,101035.33
2018-11-29T12:28:57.696Z,101033.08
2018-11-29T12:31:27.122Z,101029.70
2018-11-29T12:34:01.610Z,101029.12
2018-11-29T12:36:31.086Z,101027.40
2018-11-29T12:39:01.571Z,101029.12
2018-11-29T12:41:31.743Z,101029.02
2018-11-29T12:44:01.084Z,101019.13
2018-11-29T12:46:30.404Z,101015.95
2018-11-29T12:48:59.911Z,101015.89
2018-11-29T12:51:29.640Z,101002.13
2018-11-29T12:53:58.896Z,101007.28
2018-11-29T12:56:28.768Z,101003.19
2018-11-29T12:58:58.965Z,101000.55
2018-11-29T13:01:31.546Z,100991.20
2018-11-29T13:04:02.183Z,100984.86
2018-11-29T13:06:31.498Z,100970.45
2018-11-29T13:09:03.157Z,100975.87
2018-11-29T13:11:32.674Z,100988.19
2018-11-29T13:14:02.558Z,100977.19
2018-11-29T13:16:31.903Z,100972.77
2018-11-29T13:19:01.301Z,100960.01
2018-11-29T13:21:30.684Z,100962.55
2018-11-29T13:24:00.704Z,100957.98
2018-11-29T13:26:29.955Z,100935.20
2018-11-29T13:28:59.379Z,100937.97
2018-11-29T13:31:29.952Z,100928.59
2018-11-29T13:33:59.484Z,100916.76
2018-11-29T13:36:28.833Z,100910.08
2018-11-29T13:38:58.492Z,100914.58
2018-11-29T13:41:27.811Z,100914.19
2018-11-29T13:43:57.153Z,100919.47
2018-11-29T13:46:26.943Z,100922.97
2018-11-29T13:48:56.360Z,100903.48
2018-11-29T13:51:26.062Z,100899.05
2018-11-29T13:53:55.745Z,100898.66
2018-11-29T13:56:25.125Z,100883.89
2018-11-29T13:58:54.470Z,100899.12
2018-11-29T14:01:23.976Z,100881.78
2018-11-29T14:03:53.328Z,100880.86
2018-11-29T14:06:22.742Z,100879.07
2018-11-29T14:08:52.317Z,100874.97
2018-11-29T14:11:21.636Z,100874.94
2018-11-29T14:13:50.974Z,100880.62
2018-11-29T14:16:21.353Z,100875.50
2018-11-29T14:18:50.655Z,100886.69
2018-11-29T14:21:20.045Z,100872.30
2018-11-29T14:23:49.426Z,100872.30
2018-11-29T14:26:18.768Z,100868.33
2018-11-29T14:28:48.203Z,100856.22
2018-11-29T14:31:17.575Z,100840.18
2018-11-29T14:33:46.947Z,100830.39
2018-11-29T14:36:16.403Z,100819.43
2018-11-29T14:38:45.881Z,100819.93
2018-11-29T14:41:15.284Z,100822.25
2018-11-29T14:43:44.865Z,100813.22
2018-11-29T14:46:14.245Z,100818.50
2018-11-29T14:48:43.703Z,100810.57
2018-11-29T14:51:13.092Z,100812.22
2018-11-29T14:53:42.640Z,100818.10
2018-11-29T14:56:12.067Z,100831.71
2018-11-29T14:58:41.389Z,100825.89
2018-11-29T15:01:10.886Z,100825.43
2018-11-29T15:03:40.260Z,100811.42
2018-11-29T15:06:09.611Z,100810.97
2018-11-29T15:08:39.100Z,100794.43
2018-11-29T15:11:08.480Z,100800.64
2018-11-29T15:13:37.838Z,100807.72
2018-11-29T15:16:07.369Z,100799.61
2018-11-29T15:18:36.725Z,100810.83
2018-11-29T15:21:06.160Z,100803.18
2018-11-29T15:23:35.600Z,100791.72
2018-11-29T15:26:05.092Z,100797.21
2018-11-29T15:28:34.448Z,100788.89
2018-11-29T15:31:04.221Z,100799.07
2018-11-29T15:33:33.708Z,100806.32
2018-11-29T15:36:03.014Z,100810.28
2018-11-29T15:38:32.374Z,100794.03
2018-11-29T15:41:01.639Z,100787.28
2018-11-29T15:43:30.911Z,100785.09
2018-11-29T15:46:00.236Z,100774.41
2018-11-29T15:48:29.552Z,100777.45
2018-11-29T15:50:58.801Z,100777.38
2018-11-29T15:53:28.189Z,100773.80
2018-11-29T15:55:57.614Z,100770.30
2018-11-29T15:58:27.018Z,100774.19
2018-11-29T16:00:56.332Z,100783.30
2018-11-29T16:03:26.411Z,100789.26
2018-11-29T16:05:55.460Z,100782.42
2018-11-29T16:08:24.889Z,100788.72
2018-11-29T16:11:00.585Z,100793.86
2018-11-29T16:13:30.008Z,100784.60
2018-11-29T16:15:59.311Z,100785.69
2018-11-29T16:18:28.741Z,100777.75
2018-11-29T16:20:58.141Z,100765.23
2018-11-29T16:23:27.561Z,100764.52
2018-11-29T16:25:56.896Z,100766.05
2018-11-29T16:28:26.307Z,100765.98
2018-11-29T16:30:57.589Z,100769.25
2018-11-29T16:33:32.241Z,100755.09
2018-11-29T16:36:01.560Z,100763.77
2018-11-29T16:38:30.927Z,100760.58
2018-11-29T16:41:00.229Z,100753.50
2018-11-29T16:43:29.534Z,100761.91
2018-11-29T16:45:58.844Z,100759.58
2018-11-29T16:48:28.152Z,100754.13
2018-11-29T16:50:57.492Z,100750.55
2018-11-29T16:53:27.854Z,100750.24
2018-11-29T16:55:57.270Z,100737.48
2018-11-29T16:58:28.548Z,100743.31
2018-11-29T17:00:58.074Z,100742.53
2018-11-29T17:03:27.380Z,100724.80
2018-11-29T17:05:56.829Z,100722.54
2018-11-29T17:08:27.406Z,100723.31
2018-11-29T17:10:56.878Z,100721.06
2018-11-29T17:13:26.385Z,100715.14
2018-11-29T17:15:55.958Z,100711.10
2018-11-29T17:18:25.458Z,100706.52
2018-11-29T17:20:55.108Z,100705.06
2018-11-29T17:23:28.969Z,100694.48
2018-11-29T17:25:58.232Z,100697.98
2018-11-29T17:28:27.678Z,100689.04
2018-11-29T17:30:58.254Z,100698.30
2018-11-29T17:33:27.794Z,100695.11
2018-11-29T17:35:57.251Z,100691.69
2018-11-29T17:38:26.793Z,100691.41
2018-11-29T17:40:56.263Z,100686.11
2018-11-29T17:43:25.838Z,100685.10
2018-11-29T17:45:55.192Z,100686.81
2018-11-29T17:48:24.553Z,100687.59
2018-11-29T17:50:53.835Z,100688.45
2018-11-29T17:53:23.474Z,100681.67
2018-11-29T17:55:52.933Z,100679.19
2018-11-29T17:58:22.580Z,100672.46
2018-11-29T18:00:53.001Z,100676.90
2018-11-29T18:03:23.324Z,100675.84
2018-11-29T18:05:52.691Z,100671.56
2018-11-29T18:08:22.095Z,100677.16
2018-11-29T18:10:54.115Z,100666.86
2018-11-29T18:13:27.438Z,100662.34
2018-11-29T18:15:56.773Z,100672.51
2018-11-29T18:18:26.237Z,100663.17
2018-11-29T18:20:55.715Z,100657.97
2018-11-29T18:23:25.188Z,100656.09
2018-11-29T18:25:54.479Z,100650.96
2018-11-29T18:28:23.971Z,100646.26
2018-11-29T18:30:53.403Z,100634.75
2018-11-29T18:33:22.912Z,100639.10
2018-11-29T18:35:52.368Z,100643.22
2018-11-29T18:38:21.688Z,100632.64
2018-11-29T18:40:51.100Z,100628.68
2018-11-29T18:43:20.437Z,100626.30
2018-11-29T18:45:49.838Z,100616.16
2018-11-29T18:48:19.272Z,100598.91
2018-11-29T18:50:48.770Z,100587.52
2018-11-29T18:53:18.084Z,100608.48
2018-11-29T18:55:47.663Z,100594.24
2018-11-29T18:58:17.025Z,100602.02
2018-11-29T19:00:46.484Z,100609.95
2018-11-29T19:03:15.841Z,100586.95
2018-11-29T19:05:45.250Z,100596.21
2018-11-29T19:08:14.738Z,100605.94
2018-11-29T19:10:44.130Z,100604.66
2018-11-29T19:13:14.112Z,100625.16
2018-11-29T19:15:43.436Z,100589.98
2018-11-29T19:18:12.711Z,100592.24
2018-11-29T19:20:42.133Z,100590.21
2018-11-29T19:23:11.450Z,100604.38
2018-11-29T19:25:40.955Z,100632.55
2018-11-29T19:28:10.408Z,100659.50
2018-11-29T19:30:39.716Z,100661.37
2018-11-29T19:33:17.851Z,100648.91
2018-11-29T19:35:50.450Z,100633.50
2018-11-29T19:38:19.881Z,100633.03
2018-11-29T19:40:49.089Z,100635.68
2018-11-29T19:43:18.408Z,100638.80
2018-11-29T19:45:48.129Z,100639.65
2018-11-29T19:48:17.499Z,100625.80
2018-11-29T19:50:46.830Z,100636.25
2018-11-29T19:53:21.747Z,100642.78
2018-11-29T19:55:53.063Z,100640.66
2018-11-29T19:58:22.494Z,100641.77
2018-11-29T20:00:51.756Z,100637.64
2018-11-29T20:03:21.020Z,100634.14
2018-11-29T20:05:50.461Z,100628.45
2018-11-29T20:08:19.886Z,100656.09
2018-11-29T20:10:49.255Z,100637.09
2018-11-29T20:13:18.596Z,100621.29
2018-11-29T20:15:50.017Z,100604.56
2018-11-29T20:18:19.269Z,100628.87
2018-11-29T20:20:48.658Z,100625.84
2018-11-29T20:23:17.891Z,100657.76
2018-11-29T20:25:48.013Z,100647.39
2018-11-29T20:28:17.298Z,100650.12
2018-11-29T20:30:46.716Z,100648.41
2018-11-29T20:33:16.071Z,100643.48
2018-11-29T20:35:45.308Z,100652.32
2018-11-29T20:38:14.814Z,100654.24
2018-11-29T20:40:45.387Z,100651.21
2018-11-29T20:43:15.341Z,100645.53
2018-11-29T20:45:46.899Z,100642.33
2018-11-29T20:48:21.881Z,100653.86
2018-11-29T20:50:52.188Z,100646.94
2018-11-29T20:53:24.635Z,100654.57
2018-11-29T20:55:54.096Z,100664.61
2018-11-29T20:58:23.391Z,100662.34
2018-11-29T21:00:52.671Z,100665.00
2018-11-29T21:03:22.054Z,100661.64
2018-11-29T21:05:51.340Z,100665.61
2018-11-29T21:08:20.713Z,100656.73
2018-11-29T21:10:50.142Z,100661.81
2018-11-29T21:13:19.364Z,100663.52
2018-11-29T21:15:48.775Z,100652.77
2018-11-29T21:18:18.148Z,100651.70
2018-11-29T21:20:47.512Z,100644.83
2018-11-29T21:23:18.029Z,100653.55
2018-11-29T21:25:47.680Z,100655.25
2018-11-29T21:28:16.955Z,100662.12
2018-11-29T21:30:46.238Z,100660.25
2018-11-29T21:33:15.662Z,100664.06
2018-11-29T21:35:45.090Z,100658.24
2018-11-29T21:38:19.809Z,100655.13
2018-11-29T21:40:53.515Z,100656.03
2018-11-29T21:43:23.741Z,100647.86
2018-11-29T21:45:53.080Z,100652.22
2018-11-29T21:48:22.523Z,100648.63
2018-11-29T21:50:51.930Z,100649.35
2018-11-29T21:53:21.229Z,100647.73
2018-11-29T21:55:50.552Z,100653.41
2018-11-29T21:58:19.883Z,100648.11
2018-11-29T22:00:49.290Z,100649.30
2018-11-29T22:03:18.755Z,100632.08
2018-11-29T22:05:47.956Z,100638.28
2018-11-29T22:08:17.297Z,100618.97
2018-11-29T22:10:46.735Z,100621.84
2018-11-29T22:13:16.114Z,100630.17
2018-11-29T22:15:45.544Z,100625.98
2018-11-29T22:18:18.016Z,100624.71
2018-11-29T22:20:48.399Z,100623.64
2018-11-29T22:23:17.663Z,100621.23
2018-11-29T22:25:46.925Z,100617.31
2018-11-29T22:28:16.244Z,100616.16
2018-11-29T22:30:45.666Z,100618.81
2018-11-29T22:33:14.982Z,100613.98
2018-11-29T22:35:44.279Z,100608.60
2018-11-29T22:38:13.496Z,100610.64
2018-11-29T22:40:42.784Z,100614.06
2018-11-29T22:43:12.124Z,100607.14
2018-11-29T22:45:41.351Z,100616.02
2018-11-29T22:48:10.652Z,100611.72
2018-11-29T22:50:40.017Z,100610.09
2018-11-29T22:53:09.429Z,100598.89
2018-11-29T22:55:39.110Z,100603.17
2018-11-29T22:58:08.618Z,100596.94
2018-11-29T23:00:43.290Z,100592.96
2018-11-29T23:03:13.039Z,100600.73
2018-11-29T23:05:42.337Z,100610.94
2018-11-29T23:08:11.646Z,100615.55
2018-11-29T23:10:41.004Z,100625.05
2018-11-29T23:13:10.250Z,100622.65
2018-11-29T23:15:39.581Z,100614.15
2018-11-29T23:18:08.987Z,100620.14
2018-11-29T23:20:38.208Z,100613.05
2018-11-29T23:23:07.477Z,100617.79
2018-11-29T23:25:36.770Z,100617.41
2018-11-29T23:28:06.890Z,100617.70
2018-11-29T23:30:36.216Z,100616.55
2018-11-29T23:33:05.640Z,100623.55
2018-11-29T23:35:34.927Z,100622.86
2018-11-29T23:38:04.227Z,100618.97
2018-11-29T23:40:33.503Z,100618.41
2018-11-29T23:43:02.816Z,100617.72
2018-11-29T23:45:32.145Z,100614.90
2018-11-29T23:48:01.418Z,100597.67
2018-11-29T23:50:30.629Z,100589.73
2018-11-29T23:52:59.967Z,100581.63
2018-11-29T23:55:29.367Z,100575.02
2018-11-29T23:57:58.641Z,100590.66
